createdAt,value
2019-05-21T00:01:22.537Z,14.00
2019-05-21T00:03:58.066Z,13.90
2019-05-21T00:06:27.196Z,13.90
2019-05-21T00:09:10.469Z,13.80
2019-05-21T00:11:39.622Z,13.80
2019-05-21T00:14:16.007Z,13.80
2019-05-21T00:16:45.208Z,13.70
2019-05-21T00:19:14.329Z,13.70
2019-05-21T00:21:50.656Z,13.70
2019-05-21T00:24:26.609Z,13.70
2019-05-21T00:27:02.779Z,13.70
2019-05-21T00:30:08.153Z,13.70
2019-05-21T00:33:19.697Z,13.70
2019-05-21T00:36:27.397Z,13.70
2019-05-21T00:39:38.719Z,13.60
2019-05-21T00:42:07.617Z,13.60
2019-05-21T00:44:48.063Z,13.60
2019-05-21T00:47:17.233Z,13.50
2019-05-21T00:49:52.755Z,13.50
2019-05-21T00:52:21.977Z,13.40
2019-05-21T00:54:57.301Z,13.50
2019-05-21T00:57:26.516Z,13.40
2019-05-21T01:00:02.220Z,13.40
2019-05-21T01:02:31.486Z,13.40
2019-05-21T01:05:07.272Z,13.40
2019-05-21T01:07:43.270Z,13.40
2019-05-21T01:10:25.667Z,13.40
2019-05-21T01:12:54.787Z,13.30
2019-05-21T01:15:30.304Z,13.30
2019-05-21T01:17:59.530Z,13.20
2019-05-21T01:20:34.869Z,13.20
2019-05-21T01:23:11.325Z,13.10
2019-05-21T01:25:47.555Z,13.20
2019-05-21T01:28:16.885Z,13.10
2019-05-21T01:30:46.135Z,13.10
2019-05-21T01:33:21.947Z,13.10
2019-05-21T01:35:51.079Z,13.10
2019-05-21T01:38:27.157Z,13.10
2019-05-21T01:40:56.480Z,13.10
2019-05-21T01:43:32.136Z,13.10
2019-05-21T01:46:01.259Z,13.10
2019-05-21T01:48:36.741Z,13.10
2019-05-21T01:51:05.881Z,13.10
2019-05-21T01:53:42.015Z,13.10
2019-05-21T01:56:11.261Z,12.90
2019-05-21T01:58:47.003Z,12.90
2019-05-21T02:01:16.219Z,12.90
2019-05-21T02:03:51.549Z,12.90
2019-05-21T02:06:21.265Z,12.80
2019-05-21T02:09:04.751Z,12.80
2019-05-21T02:14:36.824Z,12.80
2019-05-21T02:17:06.047Z,12.80
2019-05-21T02:19:35.280Z,12.80
2019-05-21T02:22:11.280Z,12.80
2019-05-21T02:24:47.221Z,12.80
2019-05-21T02:27:22.727Z,12.80
2019-05-21T02:29:51.897Z,12.70
2019-05-21T02:32:28.129Z,12.70
2019-05-21T02:34:57.327Z,12.70
2019-05-21T02:37:33.141Z,12.70
2019-05-21T02:40:02.442Z,12.70
2019-05-21T02:42:38.720Z,12.70
2019-05-21T02:45:08.627Z,12.70
2019-05-21T02:47:44.108Z,12.80
2019-05-21T02:50:13.454Z,12.70
2019-05-21T02:52:49.619Z,12.70
2019-05-21T02:55:19.850Z,12.70
2019-05-21T02:57:49.026Z,12.70
2019-05-21T03:00:44.802Z,12.70
2019-05-21T03:03:14.865Z,12.70
2019-05-21T03:05:51.060Z,12.70
2019-05-21T03:08:20.240Z,12.90
2019-05-21T03:10:56.161Z,12.80
2019-05-21T03:13:33.213Z,12.80
2019-05-21T03:16:08.906Z,12.80
2019-05-21T03:18:38.061Z,12.70
2019-05-21T03:21:14.077Z,12.70
2019-05-21T03:23:43.225Z,12.80
2019-05-21T03:26:25.653Z,12.80
2019-05-21T03:28:54.821Z,12.80
2019-05-21T03:31:24.046Z,12.80
2019-05-21T03:34:00.323Z,12.80
2019-05-21T03:36:33.395Z,12.80
2019-05-21T03:39:07.605Z,12.70
2019-05-21T03:41:36.748Z,12.70
2019-05-21T03:44:12.096Z,12.70
2019-05-21T03:46:41.766Z,12.60
2019-05-21T03:49:17.458Z,12.60
2019-05-21T03:51:46.595Z,12.70
2019-05-21T03:54:22.522Z,12.70
2019-05-21T03:56:51.790Z,12.70
2019-05-21T03:59:27.895Z,12.70
2019-05-21T04:01:57.157Z,12.60
2019-05-21T04:04:32.471Z,12.70
2019-05-21T04:07:01.654Z,12.70
2019-05-21T04:09:30.906Z,12.60
2019-05-21T04:12:06.316Z,12.70
2019-05-21T04:14:46.576Z,12.70
2019-05-21T04:17:50.453Z,12.70
2019-05-21T04:20:26.195Z,12.70
2019-05-21T04:22:55.411Z,12.70
2019-05-21T04:25:38.098Z,12.80
2019-05-21T04:28:07.368Z,12.70
2019-05-21T04:30:36.621Z,12.70
2019-05-21T04:33:12.395Z,12.60
2019-05-21T04:35:41.559Z,12.60
2019-05-21T04:38:17.276Z,12.60
2019-05-21T04:40:46.616Z,12.60
2019-05-21T04:43:22.890Z,12.60
2019-05-21T04:46:11.075Z,12.60
2019-05-21T04:48:46.740Z,12.60
2019-05-21T04:51:15.877Z,12.60
2019-05-21T04:53:52.367Z,12.60
2019-05-21T04:56:21.541Z,12.70
2019-05-21T04:58:57.088Z,12.60
2019-05-21T05:01:26.313Z,12.50
2019-05-21T05:03:55.493Z,12.60
2019-05-21T05:06:31.307Z,12.60
2019-05-21T05:09:07.230Z,12.50
2019-05-21T05:11:36.371Z,12.50
2019-05-21T05:14:19.903Z,12.50
2019-05-21T05:16:55.289Z,12.40
2019-05-21T05:19:31.387Z,12.50
2019-05-21T05:22:00.560Z,12.50
2019-05-21T05:24:29.717Z,12.50
2019-05-21T05:27:15.371Z,12.50
2019-05-21T05:29:44.582Z,12.50
2019-05-21T05:32:22.553Z,12.50
2019-05-21T05:34:51.750Z,12.50
2019-05-21T05:37:42.580Z,12.50
2019-05-21T05:39:58.373Z,12.50
2019-05-21T05:42:27.493Z,12.50
2019-05-21T05:48:08.973Z,12.50
2019-05-21T05:50:56.799Z,12.50
2019-05-21T05:53:25.965Z,12.60
2019-05-21T05:56:02.228Z,12.60
2019-05-21T05:58:31.396Z,12.60
2019-05-21T06:01:00.526Z,12.60
2019-05-21T06:03:36.453Z,12.70
2019-05-21T06:06:05.711Z,12.70
2019-05-21T06:08:41.312Z,12.70
2019-05-21T06:11:10.789Z,12.70
2019-05-21T06:13:46.658Z,12.70
2019-05-21T06:16:15.843Z,12.80
2019-05-21T06:18:51.118Z,12.80
2019-05-21T06:21:20.390Z,12.90
2019-05-21T06:23:58.851Z,12.90
2019-05-21T06:26:28.481Z,12.80
2019-05-21T06:29:10.775Z,12.80
2019-05-21T06:31:40.003Z,12.90
2019-05-21T06:34:16.208Z,12.80
2019-05-21T06:36:46.292Z,12.90
2019-05-21T06:39:15.516Z,12.80
2019-05-21T06:41:50.709Z,12.90
2019-05-21T06:44:19.913Z,12.90
2019-05-21T06:46:56.480Z,12.90
2019-05-21T06:49:32.494Z,13.00
2019-05-21T06:52:08.150Z,12.90
2019-05-21T06:54:37.359Z,12.90
2019-05-21T06:57:13.088Z,12.90
2019-05-21T06:59:42.310Z,12.80
2019-05-21T07:02:18.061Z,12.80
2019-05-21T07:04:47.460Z,12.90
2019-05-21T07:07:16.612Z,12.90
2019-05-21T07:09:52.691Z,12.90
2019-05-21T07:12:21.907Z,12.90
2019-05-21T07:14:57.582Z,12.90
2019-05-21T07:17:27.031Z,12.90
2019-05-21T07:20:02.747Z,12.90
2019-05-21T07:22:31.976Z,12.90
2019-05-21T07:25:01.200Z,12.80
2019-05-21T07:27:37.266Z,12.80
2019-05-21T07:30:13.710Z,12.90
2019-05-21T07:32:49.286Z,12.90
2019-05-21T07:35:18.537Z,12.90
2019-05-21T07:37:54.322Z,12.90
2019-05-21T07:40:23.526Z,12.80
2019-05-21T07:42:59.473Z,12.80
2019-05-21T07:45:28.640Z,12.70
2019-05-21T07:48:12.029Z,12.80
2019-05-21T07:50:48.310Z,12.80
2019-05-21T07:53:24.514Z,12.70
2019-05-21T07:55:53.652Z,12.60
2019-05-21T07:58:29.603Z,12.60
2019-05-21T08:01:01.123Z,12.60
2019-05-21T08:03:29.641Z,12.60
2019-05-21T08:06:05.762Z,12.60
2019-05-21T08:09:12.353Z,12.70
2019-05-21T08:11:34.892Z,12.70
2019-05-21T08:14:10.861Z,12.70
2019-05-21T08:16:40.068Z,12.70
2019-05-21T08:19:09.557Z,12.70
2019-05-21T08:21:44.927Z,12.80
2019-05-21T08:24:14.343Z,12.90
2019-05-21T08:26:49.970Z,12.90
2019-05-21T08:29:26.098Z,12.90
2019-05-21T08:32:02.229Z,12.90
2019-05-21T08:34:31.530Z,12.90
2019-05-21T08:37:09.723Z,12.90
2019-05-21T08:39:38.982Z,12.90
2019-05-21T08:42:15.229Z,12.90
2019-05-21T08:44:44.498Z,12.80
2019-05-21T08:47:21.807Z,12.80
2019-05-21T08:49:58.108Z,12.80
2019-05-21T08:52:33.643Z,12.70
2019-05-21T08:55:02.912Z,12.70
2019-05-21T08:57:32.183Z,12.80
2019-05-21T09:00:08.886Z,12.80
2019-05-21T09:02:38.315Z,12.80
2019-05-21T09:05:15.749Z,12.90
2019-05-21T09:07:45.052Z,12.90
2019-05-21T09:10:21.101Z,12.80
2019-05-21T09:12:50.455Z,12.80
2019-05-21T09:15:26.598Z,12.80
2019-05-21T09:17:55.802Z,12.90
2019-05-21T09:20:32.235Z,12.80
2019-05-21T09:23:01.537Z,12.90
2019-05-21T09:25:37.086Z,12.90
2019-05-21T09:28:06.675Z,12.90
2019-05-21T09:30:49.576Z,12.90
2019-05-21T09:33:19.076Z,12.90
2019-05-21T09:35:55.229Z,12.90
2019-05-21T09:38:24.489Z,13.00
2019-05-21T09:41:01.427Z,12.90
2019-05-21T09:43:31.380Z,12.90
2019-05-21T09:46:00.833Z,12.90
2019-05-21T09:48:36.515Z,13.10
2019-05-21T09:51:19.806Z,13.10
2019-05-21T09:53:49.878Z,13.10
2019-05-21T09:56:32.226Z,13.10
2019-05-21T09:59:14.967Z,13.10
2019-05-21T10:01:48.030Z,13.30
2019-05-21T10:04:24.861Z,13.30
2019-05-21T10:06:54.237Z,13.30
2019-05-21T10:09:30.089Z,13.30
2019-05-21T10:11:59.389Z,13.40
2019-05-21T10:14:34.884Z,13.40
2019-05-21T10:17:04.181Z,13.40
2019-05-21T10:19:41.650Z,13.50
2019-05-21T10:22:13.411Z,13.50
2019-05-21T10:24:50.209Z,13.50
2019-05-21T10:27:19.453Z,13.50
2019-05-21T10:29:48.640Z,13.60
2019-05-21T10:32:31.102Z,13.60
2019-05-21T10:35:00.513Z,13.50
2019-05-21T10:37:36.117Z,13.40
2019-05-21T10:40:05.697Z,13.40
2019-05-21T10:42:42.184Z,13.40
2019-05-21T10:45:14.135Z,13.50
2019-05-21T10:47:53.324Z,13.50
2019-05-21T10:50:29.618Z,13.40
2019-05-21T10:53:11.699Z,13.40
2019-05-21T10:55:41.058Z,13.40
2019-05-21T10:58:10.593Z,13.50
2019-05-21T11:00:47.477Z,13.40
2019-05-21T11:03:30.997Z,13.40
2019-05-21T11:06:10.153Z,13.40
2019-05-21T11:08:40.967Z,13.30
2019-05-21T11:11:10.351Z,13.30
2019-05-21T11:13:48.083Z,13.30
2019-05-21T11:16:17.523Z,13.30
2019-05-21T11:18:53.581Z,13.20
2019-05-21T11:21:22.951Z,13.10
2019-05-21T11:24:00.055Z,13.10
2019-05-21T11:26:32.732Z,13.10
2019-05-21T11:29:02.202Z,13.20
2019-05-21T11:31:56.437Z,13.10
2019-05-21T11:34:18.131Z,13.10
2019-05-21T11:36:54.239Z,13.10
2019-05-21T11:39:23.484Z,13.00
2019-05-21T11:42:00.007Z,13.00
2019-05-21T11:44:29.695Z,13.10
2019-05-21T11:47:05.308Z,13.10
2019-05-21T11:49:36.119Z,13.20
2019-05-21T11:52:19.989Z,13.20
2019-05-21T11:54:49.109Z,13.10
2019-05-21T11:57:24.882Z,13.10
2019-05-21T11:59:54.548Z,13.10
2019-05-21T12:02:32.082Z,13.00
2019-05-21T12:05:01.375Z,13.00
2019-05-21T12:07:30.647Z,13.10
2019-05-21T12:10:06.143Z,13.10
2019-05-21T12:12:35.304Z,13.00
2019-05-21T12:15:11.890Z,13.00
2019-05-21T12:17:41.104Z,13.00
2019-05-21T12:20:33.646Z,13.00
2019-05-21T12:23:08.384Z,13.00
2019-05-21T12:25:43.879Z,13.00
2019-05-21T12:28:13.268Z,13.00
2019-05-21T12:30:42.516Z,13.00
2019-05-21T12:33:25.033Z,13.00
2019-05-21T12:35:54.692Z,13.00
2019-05-21T12:38:30.762Z,13.10
2019-05-21T12:40:59.924Z,13.10
2019-05-21T12:43:35.688Z,13.00
2019-05-21T12:46:04.942Z,13.00
2019-05-21T12:48:41.119Z,13.00
2019-05-21T12:51:17.260Z,13.00
2019-05-21T12:54:00.230Z,12.90
2019-05-21T12:56:29.454Z,13.00
2019-05-21T12:59:04.910Z,13.00
2019-05-21T13:01:34.070Z,13.00
2019-05-21T13:04:10.504Z,13.00
2019-05-21T13:06:39.693Z,12.90
2019-05-21T13:09:31.376Z,12.90
2019-05-21T13:11:47.603Z,13.00
2019-05-21T13:14:23.930Z,13.00
2019-05-21T13:16:53.170Z,13.00
2019-05-21T13:19:29.328Z,13.00
2019-05-21T13:31:17.699Z,13.00
2019-05-21T13:34:00.260Z,13.00
2019-05-21T13:36:29.508Z,13.00
2019-05-21T13:38:58.754Z,13.10
2019-05-21T13:41:34.982Z,13.00
2019-05-21T13:44:04.305Z,13.00
2019-05-21T13:46:40.288Z,13.10
2019-05-21T13:49:09.978Z,13.10
2019-05-21T13:51:45.862Z,13.00
2019-05-21T13:54:15.146Z,13.10
2019-05-21T13:56:51.249Z,13.10
2019-05-21T13:59:20.748Z,13.10
2019-05-21T14:01:56.413Z,13.10
2019-05-21T14:04:25.880Z,13.10
2019-05-21T14:07:03.096Z,13.10
2019-05-21T14:09:32.356Z,13.20
2019-05-21T14:12:07.783Z,13.10
2019-05-21T14:14:37.568Z,13.10
2019-05-21T14:17:13.178Z,13.10
2019-05-21T14:19:42.647Z,13.10
2019-05-21T14:22:11.908Z,13.20
2019-05-21T14:24:47.434Z,13.20
2019-05-21T14:27:16.764Z,13.10
2019-05-21T14:29:52.632Z,13.10
2019-05-21T14:32:35.838Z,13.00
2019-05-21T14:35:12.451Z,13.00
2019-05-21T14:37:41.707Z,13.00
2019-05-21T14:40:31.165Z,13.00
2019-05-21T14:42:59.483Z,13.00
2019-05-21T14:45:29.923Z,13.00
2019-05-21T14:47:58.525Z,13.00
2019-05-21T14:50:34.144Z,13.00
2019-05-21T14:53:03.473Z,13.00
2019-05-21T14:55:39.093Z,13.00
2019-05-21T14:58:09.245Z,13.00
2019-05-21T15:00:45.608Z,13.10
2019-05-21T15:03:24.727Z,13.10
2019-05-21T15:05:53.225Z,13.00
2019-05-21T15:08:22.422Z,13.10
2019-05-21T15:10:57.945Z,13.10
2019-05-21T15:13:27.113Z,13.10
2019-05-21T15:16:02.473Z,13.10
2019-05-21T15:18:31.880Z,13.10
2019-05-21T15:21:26.449Z,13.10
2019-05-21T15:23:57.034Z,13.10
2019-05-21T15:26:32.864Z,13.10
2019-05-21T15:29:02.096Z,13.10
2019-05-21T15:31:44.930Z,13.20
2019-05-21T15:34:14.258Z,13.20
2019-05-21T15:36:49.740Z,13.10
2019-05-21T15:39:19.078Z,13.20
2019-05-21T15:41:48.438Z,13.20
2019-05-21T15:44:24.285Z,13.20
2019-05-21T15:46:54.347Z,13.20
2019-05-21T15:49:36.440Z,13.20
2019-05-21T15:52:03.086Z,13.30
2019-05-21T15:54:39.990Z,13.20
2019-05-21T15:57:10.551Z,13.20
2019-05-21T15:59:47.990Z,13.10
2019-05-21T16:02:19.877Z,13.10
2019-05-21T16:04:56.130Z,13.00
2019-05-21T16:07:28.026Z,13.00
2019-05-21T16:10:03.681Z,13.10
2019-05-21T16:12:33.081Z,13.10
2019-05-21T16:15:02.728Z,13.10
2019-05-21T16:17:38.743Z,13.10
2019-05-21T16:20:08.367Z,13.00
2019-05-21T16:22:44.581Z,13.00
2019-05-21T16:25:15.156Z,13.00
2019-05-21T16:27:50.504Z,13.10
2019-05-21T16:30:19.926Z,13.00
2019-05-21T16:33:23.614Z,13.00
2019-05-21T16:35:52.962Z,13.00
2019-05-21T16:38:29.295Z,13.00
2019-05-21T16:40:58.494Z,13.00
2019-05-21T16:43:34.483Z,13.10
2019-05-21T16:46:03.942Z,13.10
2019-05-21T16:48:36.238Z,13.10
2019-05-21T16:51:12.307Z,13.10
2019-05-21T16:53:41.506Z,13.20
2019-05-21T16:56:17.554Z,13.10
2019-05-21T16:58:46.834Z,13.10
2019-05-21T17:01:23.317Z,13.20
2019-05-21T17:03:59.874Z,13.20
2019-05-21T17:06:30.336Z,13.10
2019-05-21T17:08:59.602Z,13.10
2019-05-21T17:11:35.646Z,13.10
2019-05-21T17:14:06.692Z,13.10
2019-05-21T17:16:44.400Z,13.10
2019-05-21T17:19:13.741Z,13.10
2019-05-21T17:21:50.208Z,13.10
2019-05-21T17:24:38.447Z,13.00
2019-05-21T17:27:15.130Z,13.00
2019-05-21T17:29:45.047Z,13.10
2019-05-21T17:32:21.153Z,13.10
2019-05-21T17:35:04.067Z,13.10
2019-05-21T17:37:39.566Z,13.10
2019-05-21T17:40:17.696Z,13.10
2019-05-21T17:42:53.533Z,13.10
2019-05-21T17:45:27.864Z,13.10
2019-05-21T17:48:03.254Z,13.10
2019-05-21T17:50:33.794Z,13.10
2019-05-21T17:53:03.019Z,13.00
2019-05-21T17:55:39.841Z,13.10
2019-05-21T17:58:11.397Z,13.10
2019-05-21T18:01:06.058Z,13.00
2019-05-21T18:03:42.009Z,13.00
2019-05-21T18:06:12.183Z,12.90
2019-05-21T18:08:48.219Z,12.90
2019-05-21T18:11:19.738Z,12.90
2019-05-21T18:13:55.658Z,12.90
2019-05-21T18:16:25.912Z,12.90
2019-05-21T18:18:57.616Z,12.90
2019-05-21T18:21:36.955Z,12.90
2019-05-21T18:24:06.843Z,13.00
2019-05-21T18:26:43.230Z,13.00
2019-05-21T18:29:12.487Z,12.90
2019-05-21T18:31:48.829Z,12.90
2019-05-21T18:34:25.977Z,12.90
2019-05-21T18:37:02.398Z,12.90
2019-05-21T18:39:32.209Z,12.90
2019-05-21T18:42:21.098Z,12.80
2019-05-21T18:44:40.151Z,12.90
2019-05-21T18:47:15.686Z,12.90
2019-05-21T18:49:44.928Z,12.90
2019-05-21T18:52:21.328Z,12.90
2019-05-21T18:54:50.607Z,12.90
2019-05-21T18:57:26.610Z,12.90
2019-05-21T18:59:55.875Z,12.90
2019-05-21T19:02:33.795Z,13.00
2019-05-21T19:08:08.233Z,13.10
2019-05-21T19:10:39.167Z,13.00
2019-05-21T19:13:08.706Z,13.00
2019-05-21T19:15:45.857Z,13.10
2019-05-21T19:18:22.848Z,13.00
2019-05-21T19:20:52.091Z,13.00
2019-05-21T19:23:21.248Z,13.00
2019-05-21T19:25:58.772Z,13.00
2019-05-21T19:28:28.244Z,13.00
2019-05-21T19:34:01.116Z,12.90
2019-05-21T19:36:43.465Z,12.90
2019-05-21T19:39:15.938Z,13.00
2019-05-21T19:41:53.349Z,12.90
2019-05-21T19:44:22.586Z,12.90
2019-05-21T19:46:57.859Z,12.90
2019-05-21T19:49:27.061Z,12.90
2019-05-21T19:51:56.484Z,12.80
2019-05-21T19:54:32.288Z,12.90
2019-05-21T19:57:04.617Z,12.90
2019-05-21T19:59:40.673Z,12.90
2019-05-21T20:02:10.373Z,13.00
2019-05-21T20:04:46.702Z,13.00
2019-05-21T20:07:17.187Z,13.00
2019-05-21T20:09:48.618Z,13.10
2019-05-21T20:12:25.337Z,13.10
2019-05-21T20:14:55.449Z,13.10
2019-05-21T20:17:33.709Z,13.00
2019-05-21T20:20:04.869Z,13.00
2019-05-21T20:22:41.211Z,13.00
2019-05-21T20:25:11.966Z,13.00
2019-05-21T20:27:41.210Z,13.00
2019-05-21T20:30:20.219Z,13.00
2019-05-21T20:32:51.795Z,13.00
2019-05-21T20:35:36.045Z,12.90
2019-05-21T20:38:07.573Z,13.00
2019-05-21T20:40:43.637Z,12.90
2019-05-21T20:43:12.899Z,13.00
2019-05-21T20:45:45.585Z,12.90
2019-05-21T20:48:23.136Z,12.90
2019-05-21T20:51:02.181Z,12.90
2019-05-21T20:53:34.748Z,12.80
2019-05-21T20:56:11.031Z,12.80
2019-05-21T20:58:42.704Z,12.90
2019-05-21T21:01:11.958Z,12.80
2019-05-21T21:03:50.764Z,12.80
2019-05-21T21:06:34.287Z,12.80
2019-05-21T21:08:58.162Z,12.80
2019-05-21T21:11:28.772Z,12.80
2019-05-21T21:14:17.395Z,12.80
2019-05-21T21:16:39.250Z,12.70
2019-05-21T21:19:08.664Z,12.70
2019-05-21T21:21:44.518Z,12.80
2019-05-21T21:24:13.753Z,12.70
2019-05-21T21:26:50.289Z,12.70
2019-05-21T21:29:19.572Z,12.80
2019-05-21T21:31:56.405Z,12.80
2019-05-21T21:34:32.724Z,12.80
2019-05-21T21:37:15.819Z,12.70
2019-05-21T21:39:45.163Z,12.70
2019-05-21T21:42:14.579Z,12.70
2019-05-21T21:44:51.417Z,12.70
2019-05-21T21:47:21.248Z,12.70
2019-05-21T21:49:58.808Z,12.70
2019-05-21T21:52:29.700Z,12.60
2019-05-21T21:54:59.075Z,12.60
2019-05-21T21:57:35.126Z,12.60
2019-05-21T22:00:08.952Z,12.60
2019-05-21T22:02:45.614Z,12.60
2019-05-21T22:05:14.947Z,12.60
2019-05-21T22:07:51.829Z,12.60
2019-05-21T22:10:21.514Z,12.60
2019-05-21T22:12:50.864Z,12.60
2019-05-21T22:15:26.922Z,12.50
2019-05-21T22:17:56.210Z,12.60
2019-05-21T22:20:33.092Z,12.60
2019-05-21T22:23:05.698Z,12.50
2019-05-21T22:25:34.985Z,12.50
2019-05-21T22:28:11.445Z,12.50
2019-05-21T22:30:40.758Z,12.50
2019-05-21T22:33:17.261Z,12.50
2019-05-21T22:35:53.516Z,12.50
2019-05-21T22:38:36.262Z,12.40
2019-05-21T22:41:05.521Z,12.40
2019-05-21T22:43:41.764Z,12.50
2019-05-21T22:46:11.421Z,12.40
2019-05-21T22:48:40.666Z,12.40
2019-05-21T22:51:16.904Z,12.40
2019-05-21T22:53:46.247Z,12.40
2019-05-21T22:56:21.942Z,12.40
2019-05-21T22:58:51.465Z,12.50
2019-05-21T23:01:22.388Z,12.50
2019-05-21T23:03:58.422Z,12.40
2019-05-21T23:06:27.572Z,12.50
2019-05-21T23:09:03.146Z,12.40
2019-05-21T23:11:33.030Z,12.40
2019-05-21T23:14:08.590Z,12.40
2019-05-21T23:16:37.919Z,12.40
2019-05-21T23:19:08.644Z,12.40
2019-05-21T23:21:44.161Z,12.40
2019-05-21T23:24:17.718Z,12.50
2019-05-21T23:26:54.513Z,12.40
2019-05-21T23:29:24.859Z,12.40
2019-05-21T23:32:01.185Z,12.50
2019-05-21T23:34:31.323Z,12.40
2019-05-21T23:37:17.033Z,12.40
2019-05-21T23:39:54.302Z,12.30
2019-05-21T23:42:31.063Z,12.40
2019-05-21T23:45:01.086Z,12.30
2019-05-21T23:47:30.308Z,12.30
2019-05-21T23:50:05.750Z,12.30
2019-05-21T23:52:37.249Z,12.30
2019-05-21T23:55:13.540Z,12.30
2019-05-21T23:57:43.108Z,12.30
